Time;durP1;ratioP1;P1;durP2;ratioP2;P2;SDS_P1;SDS_P2;PMS_P1;PMS_P2;Temp;Humidity;BMP_temperature;BMP_pressure;BME280_temperature;BME280_humidity;BME280_pressure;Samples;Min_cycle;Max_cycle;Signal;HPM_P1;HPM_P2
2023/09/21 00:01:34;;;;;;;3.35;2.17;;;;;;;17.49;86.63;99874.78;5030523;28;20025;-81
2023/09/21 00:04:01;;;;;;;3.40;2.38;;;;;;;17.50;86.38;99885.25;5028151;28;20120;-79
2023/09/21 00:06:26;;;;;;;5.25;2.25;;;;;;;17.49;87.06;99874.78;5029066;28;20033;-79
2023/09/21 00:08:53;;;;;;;6.05;2.50;;;;;;;17.49;86.54;99872.94;5030115;28;20572;-79
2023/09/21 00:11:19;;;;;;;6.07;2.47;;;;;;;17.51;86.42;99876.25;5029980;28;20497;-79
2023/09/21 00:13:45;;;;;;;3.58;2.10;;;;;;;17.51;86.47;99880.75;5028529;28;20037;-80
2023/09/21 00:16:11;;;;;;;3.58;2.08;;;;;;;17.50;86.50;99874.59;5030526;28;20021;-76
2023/09/21 00:18:40;;;;;;;4.32;2.08;;;;;;;17.48;nan;99876.63;5028526;28;20186;-79
2023/09/21 00:21:06;;;;;;;3.42;2.40;;;;;;;17.46;86.62;99860.00;5027514;28;20389;-79
2023/09/21 00:23:32;;;;;;;4.50;2.15;;;;;;;17.44;86.71;99856.72;5029722;28;20092;-79
2023/09/21 00:25:57;;;;;;;3.50;2.20;;;;;;;17.47;86.47;99856.34;5028155;28;20032;-79
2023/09/21 00:28:24;;;;;;;6.15;2.53;;;;;;;17.47;86.39;99853.69;5027527;28;20056;-77
2023/09/21 00:30:53;;;;;;;3.20;2.10;;;;;;;17.45;86.11;99849.56;5029022;28;20087;-76
2023/09/21 00:33:19;;;;;;;5.70;2.33;;;;;;;17.46;86.50;99843.22;5027288;28;20025;-76
2023/09/21 00:35:45;;;;;;;4.57;2.30;;;;;;;17.47;85.95;99836.91;5027960;28;20080;-79
2023/09/21 00:38:10;;;;;;;4.47;2.47;;;;;;;17.48;85.95;99822.59;5028755;28;20034;-75
2023/09/21 00:40:38;;;;;;;2.65;2.20;;;;;;;17.48;85.99;99827.91;5030030;28;20026;-79
2023/09/21 00:43:06;;;;;;;6.95;2.45;;;;;;;17.49;85.57;99825.06;5027234;28;20048;-76
2023/09/21 00:45:38;;;;;;;3.90;2.28;;;;;;;17.50;85.93;99826.72;5029943;28;20030;-76
2023/09/21 00:48:07;;;;;;;4.60;2.17;;;;;;;17.49;85.43;99819.75;5029324;28;20029;-76
2023/09/21 00:50:33;;;;;;;5.65;2.40;;;;;;;17.52;85.49;99818.56;5025913;28;20034;-76
2023/09/21 00:52:58;;;;;;;6.43;2.05;;;;;;;17.51;85.40;99815.06;5031229;28;20543;-75
2023/09/21 00:55:39;;;;;;;4.70;1.90;;;;;;;17.51;85.30;99815.06;5029351;28;20034;-79
2023/09/21 00:58:07;;;;;;;5.75;2.33;;;;;;;17.53;85.20;99804.25;5030714;28;20108;-80
2023/09/21 01:00:33;;;;;;;2.50;1.80;;;;;;;17.57;84.39;99789.56;5028864;28;20055;-80
2023/09/21 01:03:07;;;;;;;4.38;2.08;;;;;;;17.62;83.79;99789.03;5028785;28;20038;-77
2023/09/21 01:05:36;;;;;;;4.03;2.13;;;;;;;17.62;83.89;99791.72;5029876;28;20051;-79
2023/09/21 01:08:05;;;;;;;3.40;1.85;;;;;;;17.66;83.31;99793.81;5031039;28;20071;-77
2023/09/21 01:10:33;;;;;;;3.60;1.85;;;;;;;17.68;83.09;99791.00;5029625;28;20018;-80
2023/09/21 01:12:58;;;;;;;4.35;1.90;;;;;;;17.72;82.71;99782.44;5028988;28;20033;-80
2023/09/21 01:15:24;;;;;;;2.60;1.95;;;;;;;17.79;81.53;99785.19;5027517;28;20043;-79
2023/09/21 01:17:49;;;;;;;2.92;1.77;;;;;;;17.86;81.11;99783.44;5029084;28;20034;-79
2023/09/21 01:20:32;;;;;;;2.70;1.98;;;;;;;17.89;81.09;99780.41;5031268;28;20075;-79
2023/09/21 01:23:03;;;;;;;;;;;;;;;17.97;82.52;99776.78;5031176;28;20037;-79
2023/09/21 01:25:29;;;;;;;4.57;1.80;;;;;;;18.00;80.41;99774.56;5024069;28;20415;-78
2023/09/21 01:27:54;;;;;;;4.20;1.98;;;;;;;18.00;80.29;99769.25;5013744;28;20022;-76
2023/09/21 01:30:21;;;;;;;7.47;2.00;;;;;;;18.01;80.06;99760.28;5033003;28;20021;-77
2023/09/21 01:32:48;;;;;;;3.83;2.15;;;;;;;18.02;79.95;99755.78;5048621;28;20029;-79
2023/09/21 01:35:14;;;;;;;2.60;1.92;;;;;;;18.04;79.68;99754.59;5047368;28;20065;-79
2023/09/21 01:37:40;;;;;;;3.17;1.80;;;;;;;18.08;79.04;99755.84;5043234;28;20025;-78
2023/09/21 01:40:13;;;;;;;4.43;2.05;;;;;;;18.13;78.89;99758.78;5050513;28;20021;-75
2023/09/21 01:42:39;;;;;;;3.83;1.90;;;;;;;18.14;78.52;99755.09;5049440;28;20032;-78
2023/09/21 01:45:11;;;;;;;4.22;2.00;;;;;;;18.15;78.06;99743.44;5050557;28;20069;-77
2023/09/21 01:47:36;;;;;;;2.47;1.85;;;;;;;18.16;78.39;99745.06;5053004;28;20112;-78
2023/09/21 01:50:10;;;;;;;4.32;2.20;;;;;;;18.19;77.96;99740.38;5051487;28;20041;-76
2023/09/21 01:52:36;;;;;;;3.63;1.88;;;;;;;18.20;77.82;99742.03;5052073;28;20079;-78
2023/09/21 01:55:05;;;;;;;2.30;1.70;;;;;;;18.23;77.53;99736.31;5050356;28;20091;-78
2023/09/21 01:57:31;;;;;;;3.58;1.98;;;;;;;18.22;77.64;99734.69;5039891;28;20437;-75
2023/09/21 01:59:56;;;;;;;3.78;1.80;;;;;;;18.24;77.53;99737.97;5046509;28;20120;-77
2023/09/21 02:02:23;;;;;;;2.38;1.70;;;;;;;18.22;77.36;99735.50;5048240;28;20079;-77
2023/09/21 02:04:48;;;;;;;2.88;1.70;;;;;;;18.19;77.81;99735.06;5045618;28;20025;-77
2023/09/21 02:07:14;;;;;;;2.80;1.60;;;;;;;18.16;77.74;99737.09;5047579;28;20056;-78
2023/09/21 02:09:40;;;;;;;3.10;1.98;;;;;;;18.19;77.40;99727.91;5047396;28;20471;-78
2023/09/21 02:12:06;;;;;;;2.95;1.77;;;;;;;18.21;77.25;99717.06;5046085;28;20029;-78
2023/09/21 02:14:31;;;;;;;3.78;1.58;;;;;;;18.24;77.02;99727.31;5033300;28;20078;-77
2023/09/21 02:16:58;;;;;;;4.20;1.75;;;;;;;18.24;77.44;99727.31;5028924;28;20022;-79
2023/09/21 02:19:23;;;;;;;2.65;1.70;;;;;;;18.22;77.22;99732.84;5035633;28;20033;-80
2023/09/21 02:21:50;;;;;;;4.20;2.00;;;;;;;18.24;76.88;99728.16;5031654;28;20068;-76
2023/09/21 02:24:15;;;;;;;3.80;2.15;;;;;;;18.24;77.08;99719.34;5032788;28;20027;-76
2023/09/21 02:26:48;;;;;;;5.60;2.10;;;;;;;18.23;77.22;99717.69;5033068;28;20026;-79
2023/09/21 02:29:14;;;;;;;3.15;1.70;;;;;;;18.25;76.89;99715.66;5023596;28;20064;-76
2023/09/21 02:31:42;;;;;;;4.68;1.60;;;;;;;18.24;76.93;99716.66;5018898;28;20037;-80
2023/09/21 02:34:08;;;;;;;2.47;1.90;;;;;;;18.23;76.84;99709.69;5030831;28;20025;-76
2023/09/21 02:36:34;;;;;;;3.20;1.75;;;;;;;18.22;76.92;99711.53;5031996;28;20112;-77
2023/09/21 02:38:59;;;;;;;2.40;1.67;;;;;;;18.22;76.84;99708.06;5029686;28;20335;-77
2023/09/21 02:41:25;;;;;;;3.53;2.10;;;;;;;18.24;76.60;99706.84;5031260;28;20040;-80
2023/09/21 02:43:50;;;;;;;3.63;1.90;;;;;;;18.23;76.73;99702.53;5031924;28;20068;-79
2023/09/21 02:46:16;;;;;;;2.92;1.73;;;;;;;18.22;77.43;99702.72;5014200;28;20034;-76
2023/09/21 02:48:42;;;;;;;3.10;2.03;;;;;;;18.18;77.09;99696.97;5024842;28;20025;-79
2023/09/21 02:51:08;;;;;;;3.05;1.60;;;;;;;18.17;77.46;99705.97;5031830;28;20053;-80
2023/09/21 02:53:33;;;;;;;6.22;1.90;;;;;;;18.17;77.12;99701.47;5030675;28;20057;-76
2023/09/21 02:55:59;;;;;;;2.67;1.90;;;;;;;18.17;76.97;99709.44;5031371;28;20512;-80
2023/09/21 02:58:26;;;;;;;2.67;1.75;;;;;;;18.12;77.83;99700.38;5031019;28;20033;-80
2023/09/21 03:00:52;;;;;;;2.90;1.85;;;;;;;18.14;77.33;99693.03;5029627;28;20427;-79
2023/09/21 03:03:20;;;;;;;2.95;1.77;;;;;;;18.12;77.30;99701.22;5029678;28;20037;-76
2023/09/21 03:05:47;;;;;;;4.47;1.80;;;;;;;18.11;77.43;99704.88;5030398;28;20024;-79
2023/09/21 03:08:13;;;;;;;3.60;1.80;;;;;;;18.10;77.62;99692.59;5032858;28;20116;-76
2023/09/21 03:10:52;;;;;;;2.78;1.70;;;;;;;18.06;78.11;99691.34;5030690;28;20112;-76
2023/09/21 03:13:19;;;;;;;3.45;1.92;;;;;;;18.05;77.89;99684.34;5010998;28;20486;-75
2023/09/21 03:15:50;;;;;;;4.10;2.58;;;;;;;18.04;78.08;99696.03;5012845;28;20091;-79
2023/09/21 03:18:16;;;;;;;3.10;1.85;;;;;;;18.03;78.00;99689.06;5022751;28;20026;-80
2023/09/21 03:20:43;;;;;;;3.55;1.60;;;;;;;18.05;77.97;99695.00;5025668;28;20032;-77
2023/09/21 03:23:11;;;;;;;2.88;1.90;;;;;;;18.04;78.18;99685.38;5014134;28;20087;-76
2023/09/21 03:25:41;;;;;;;3.15;1.70;;;;;;;18.06;77.90;99687.84;5030965;28;20029;-76
2023/09/21 03:28:13;;;;;;;2.92;1.70;;;;;;;18.07;77.75;99682.31;5029763;28;20041;-79
2023/09/21 03:30:48;;;;;;;4.07;1.90;;;;;;;18.06;77.97;99678.03;5026222;28;20064;-79
2023/09/21 03:33:16;;;;;;;3.15;1.70;;;;;;;18.06;78.16;99682.53;5039964;28;20012;-76
2023/09/21 03:35:48;;;;;;;4.07;1.90;;;;;;;18.04;78.37;99677.38;5043869;28;20021;-79
2023/09/21 03:38:18;;;;;;;2.97;1.70;;;;;;;18.04;78.07;99673.91;5012813;28;20037;-76
2023/09/21 03:40:50;;;;;;;3.03;1.83;;;;;;;18.04;78.29;99673.91;5032577;28;20033;-79
2023/09/21 03:43:18;;;;;;;2.65;1.77;;;;;;;18.02;78.13;99674.09;5030865;28;20061;-76
2023/09/21 03:45:47;;;;;;;4.63;2.00;;;;;;;18.03;78.60;99673.06;5030192;28;20025;-80
2023/09/21 03:48:12;;;;;;;2.33;1.80;;;;;;;18.04;78.26;99668.56;5031074;28;20041;-76
2023/09/21 03:50:40;;;;;;;3.13;1.67;;;;;;;18.04;78.70;99671.25;5030575;28;20029;-79
2023/09/21 03:53:08;;;;;;;4.10;1.83;;;;;;;18.05;78.64;99665.72;5029165;28;20402;-76
2023/09/21 03:55:35;;;;;;;3.17;1.80;;;;;;;18.05;78.46;99671.03;5029918;28;20024;-76
2023/09/21 03:58:01;;;;;;;2.85;1.70;;;;;;;18.06;78.43;99667.38;5030013;28;20080;-76
2023/09/21 04:00:29;;;;;;;3.13;2.03;;;;;;;18.06;78.66;99656.72;5030273;28;20025;-80
2023/09/21 04:02:59;;;;;;;2.97;1.92;;;;;;;18.05;78.96;99655.06;5029957;28;20418;-80
2023/09/21 04:05:30;;;;;;;3.00;1.90;;;;;;;18.08;78.81;99660.03;5028118;28;20029;-79
2023/09/21 04:07:56;;;;;;;3.42;1.88;;;;;;;18.08;78.63;99653.88;5031276;28;20026;-76
2023/09/21 04:10:22;;;;;;;3.33;1.83;;;;;;;18.08;79.09;99654.69;5032495;28;20078;-79
2023/09/21 04:12:50;;;;;;;4.25;1.90;;;;;;;18.10;79.16;99657.16;5010567;28;20437;-76
2023/09/21 04:15:16;;;;;;;3.35;1.90;;;;;;;18.08;79.59;99657.34;5012135;28;20026;-76
2023/09/21 04:17:42;;;;;;;4.72;1.90;;;;;;;18.09;79.93;99656.34;5029582;28;20036;-76
2023/09/21 04:20:12;;;;;;;4.88;1.92;;;;;;;18.09;79.73;99661.66;5030265;28;20428;-76
2023/09/21 04:22:42;;;;;;;7.40;1.98;;;;;;;18.10;79.40;99662.47;5031357;28;20025;-76
2023/09/21 04:25:09;;;;;;;2.55;1.80;;;;;;;18.10;80.03;99663.31;5029772;28;20528;-79
2023/09/21 04:27:39;;;;;;;4.07;1.90;;;;;;;18.08;80.18;99653.88;5026232;28;20429;-78
2023/09/21 04:30:09;;;;;;;3.42;2.00;;;;;;;18.09;79.78;99650.19;5026248;28;20350;-75
2023/09/21 04:32:38;;;;;;;2.75;1.90;;;;;;;18.10;79.44;99650.00;5027648;28;20033;-78
2023/09/21 04:35:05;;;;;;;6.45;2.00;;;;;;;18.11;79.79;99650.81;5028946;28;20022;-75
2023/09/21 04:37:40;;;;;;;4.07;2.10;;;;;;;18.10;80.18;99643.84;5030188;28;20117;-79
2023/09/21 04:40:10;;;;;;;3.17;1.90;;;;;;;18.09;80.16;99637.69;5028882;28;20052;-75
2023/09/21 04:42:38;;;;;;;2.58;1.80;;;;;;;18.12;80.26;99645.31;5029123;28;20155;-78
2023/09/21 04:45:11;;;;;;;5.85;2.17;;;;;;;18.15;79.80;99644.91;5029323;28;20064;-75
2023/09/21 04:47:40;;;;;;;3.05;2.28;;;;;;;18.13;80.17;99638.97;5027514;28;20116;-78
2023/09/21 04:50:09;;;;;;;2.92;1.95;;;;;;;18.11;81.16;99638.34;5030176;28;20021;-76
2023/09/21 04:52:34;;;;;;;4.40;2.17;;;;;;;18.12;81.44;99647.97;5030615;28;20037;-79
2023/09/21 04:55:03;;;;;;;3.35;1.73;;;;;;;18.12;81.62;99641.81;5030923;28;20022;-79
2023/09/21 04:57:30;;;;;;;3.05;2.00;;;;;;;18.12;81.76;99639.16;5049311;28;20033;-76
2023/09/21 04:59:56;;;;;;;5.53;2.10;;;;;;;18.09;82.49;99645.69;5033162;28;20021;-79
2023/09/21 05:02:22;;;;;;;2.70;1.98;;;;;;;18.10;82.80;99631.38;5029417;28;20037;-79
2023/09/21 05:04:48;;;;;;;3.05;2.10;;;;;;;18.10;83.51;99633.19;5033016;28;20044;-76
2023/09/21 05:07:17;;;;;;;3.40;1.98;;;;;;;18.06;84.48;99635.44;5032972;28;20091;-79
2023/09/21 05:09:45;;;;;;;3.42;1.90;;;;;;;18.01;84.48;99637.84;5032679;28;20033;-79
2023/09/21 05:12:11;;;;;;;3.85;1.73;;;;;;;18.01;83.69;99624.53;5032476;28;20022;-80
2023/09/21 05:14:37;;;;;;;5.05;2.10;;;;;;;18.01;83.53;99621.88;5034364;28;20043;-76
2023/09/21 05:17:02;;;;;;;4.38;2.00;;;;;;;18.01;83.52;99621.88;5032151;28;20132;-78
2023/09/21 05:19:30;;;;;;;3.60;2.10;;;;;;;18.01;83.48;99616.56;5033211;28;20099;-80
2023/09/21 05:21:56;;;;;;;3.70;1.73;;;;;;;18.02;84.19;99617.38;5033589;28;20091;-77
2023/09/21 05:24:24;;;;;;;3.97;2.17;;;;;;;18.03;83.88;99625.16;5033192;28;20029;-80
2023/09/21 05:26:50;;;;;;;3.33;2.25;;;;;;;18.05;84.02;99616.97;5021647;28;20026;-77
2023/09/21 05:29:16;;;;;;;4.63;2.10;;;;;;;18.06;83.95;99623.97;5023562;28;20080;-76
2023/09/21 05:31:50;;;;;;;4.22;2.10;;;;;;;18.10;83.45;99626.03;5032654;28;20029;-79
2023/09/21 05:34:16;;;;;;;5.57;2.05;;;;;;;18.14;83.44;99621.97;5032073;28;20471;-76
2023/09/21 05:36:45;;;;;;;4.25;2.20;;;;;;;18.14;83.95;99624.63;5033021;28;20055;-76
2023/09/21 05:39:11;;;;;;;2.80;2.00;;;;;;;18.16;83.69;99614.63;5032741;28;20017;-79
2023/09/21 05:41:39;;;;;;;3.05;2.20;;;;;;;18.19;84.04;99623.22;5033244;28;20083;-79
2023/09/21 05:44:05;;;;;;;3.55;2.03;;;;;;;18.19;84.04;99612.59;5031032;28;20148;-77
2023/09/21 05:46:30;;;;;;;6.05;2.42;;;;;;;18.22;84.22;99617.53;5033075;28;20109;-79
2023/09/21 05:48:56;;;;;;;5.85;2.40;;;;;;;18.26;83.72;99624.09;5032417;28;20455;-77
2023/09/21 05:51:22;;;;;;;5.60;1.88;;;;;;;18.28;84.37;99616.75;5032222;28;20037;-76
2023/09/21 05:53:48;;;;;;;5.00;2.20;;;;;;;18.29;84.99;99618.38;5029130;28;20026;-77
2023/09/21 05:56:16;;;;;;;3.25;2.17;;;;;;;18.28;85.47;99614.09;5033302;28;20032;-79
2023/09/21 05:58:41;;;;;;;4.57;2.10;;;;;;;18.27;85.86;99617.75;5031735;28;20044;-78
2023/09/21 06:01:09;;;;;;;3.30;2.10;;;;;;;18.25;86.44;99622.47;5047881;28;20032;-79
2023/09/21 06:03:35;;;;;;;5.13;2.47;;;;;;;18.22;87.67;99622.84;5032471;28;20029;-77
2023/09/21 06:06:06;;;;;;;6.05;2.28;;;;;;;18.20;88.08;99624.88;5031066;28;20061;-78
2023/09/21 06:08:32;;;;;;;4.07;2.25;;;;;;;18.15;89.55;99628.94;5033048;28;20022;-76
2023/09/21 06:10:57;;;;;;;4.93;2.30;;;;;;;18.12;89.91;99621.34;5027383;28;20037;-76
2023/09/21 06:13:25;;;;;;;3.17;2.10;;;;;;;18.07;91.13;99625.59;5024622;28;20025;-79
2023/09/21 06:15:50;;;;;;;5.45;2.40;;;;;;;18.01;91.69;99627.19;5032721;28;20469;-79
2023/09/21 06:18:17;;;;;;;4.22;2.20;;;;;;;17.92;92.16;99628.31;5028826;28;20104;-78
2023/09/21 06:20:44;;;;;;;4.13;2.40;;;;;;;17.82;94.21;99635.81;5025240;28;20642;-76
2023/09/21 06:23:09;;;;;;;4.82;2.65;;;;;;;17.74;94.87;99631.44;5024125;28;20021;-76
2023/09/21 06:25:36;;;;;;;4.47;2.35;;;;;;;17.66;96.52;99630.69;5032701;28;20492;-77
2023/09/21 06:28:02;;;;;;;3.72;2.47;;;;;;;17.62;97.14;99634.75;5030406;28;20057;-76
2023/09/21 06:30:28;;;;;;;5.45;2.85;;;;;;;17.55;97.98;99626.69;5031859;28;20117;-77
2023/09/21 06:32:55;;;;;;;4.00;2.50;;;;;;;17.52;98.58;99641.19;5031671;28;20559;-78
2023/09/21 06:35:24;;;;;;;7.28;2.67;;;;;;;17.43;100.00;99644.16;5046984;28;20048;-78
2023/09/21 06:37:54;;;;;;;4.18;2.40;;;;;;;17.43;100.00;99639.66;5045434;28;20120;-77
2023/09/21 06:40:25;;;;;;;6.15;2.50;;;;;;;17.42;100.00;99637.19;5044047;28;20037;-76
2023/09/21 06:42:51;;;;;;;5.93;2.42;;;;;;;17.38;100.00;99636.72;5051269;28;20068;-76
2023/09/21 06:45:17;;;;;;;4.13;2.60;;;;;;;17.36;100.00;99641.41;5035246;28;20052;-78
2023/09/21 06:47:43;;;;;;;4.72;2.60;;;;;;;17.34;100.00;99642.63;5030014;28;20482;-76
2023/09/21 06:50:11;;;;;;;5.70;2.55;;;;;;;17.29;100.00;99653.00;5031380;28;20071;-77
2023/09/21 06:52:37;;;;;;;3.95;2.70;;;;;;;17.22;100.00;99659.06;5032402;28;20152;-78
2023/09/21 06:55:05;;;;;;;10.70;2.90;;;;;;;17.19;100.00;99663.88;5030961;28;20027;-79
2023/09/21 06:57:31;;;;;;;4.38;2.58;;;;;;;17.16;100.00;99669.56;5031641;28;20065;-77
2023/09/21 06:59:57;;;;;;;6.22;2.95;;;;;;;17.06;100.00;99666.38;5031857;28;20021;-78
2023/09/21 07:02:26;;;;;;;5.18;3.03;;;;;;;16.98;100.00;99664.66;5030048;28;20406;-75
2023/09/21 07:04:52;;;;;;;4.80;2.97;;;;;;;16.95;100.00;99661.53;5030700;28;20385;-79
2023/09/21 07:07:18;;;;;;;6.72;3.10;;;;;;;16.90;100.00;99654.13;5031936;28;20053;-80
2023/09/21 07:09:44;;;;;;;5.18;3.50;;;;;;;16.83;100.00;99654.03;5029344;28;20437;-81
2023/09/21 07:12:11;;;;;;;5.57;3.08;;;;;;;16.79;100.00;99655.38;5030333;28;20021;-81
2023/09/21 07:14:37;;;;;;;5.13;3.25;;;;;;;16.80;100.00;99651.72;5030486;28;20068;-77
2023/09/21 07:17:06;;;;;;;5.95;3.13;;;;;;;16.76;100.00;99647.78;5028931;28;20048;-81
2023/09/21 07:19:32;;;;;;;5.82;3.42;;;;;;;16.75;100.00;99638.16;5032099;28;20505;-81
2023/09/21 07:21:58;;;;;;;4.15;3.50;;;;;;;16.75;100.00;99640.00;5030095;28;20064;-83
2023/09/21 07:24:23;;;;;;;4.15;3.00;;;;;;;16.77;100.00;99644.09;5029619;28;20086;-77
2023/09/21 07:26:49;;;;;;;5.30;2.95;;;;;;;16.76;100.00;99634.50;5031612;28;20083;-80
2023/09/21 07:29:15;;;;;;;4.20;3.00;;;;;;;16.75;100.00;99642.66;5031372;28;20021;-80
2023/09/21 07:31:40;;;;;;;4.20;2.90;;;;;;;16.77;100.00;99649.41;5022611;28;20029;-79
2023/09/21 07:34:06;;;;;;;4.72;2.95;;;;;;;16.76;100.00;99645.13;5011856;28;20160;-79
2023/09/21 07:36:32;;;;;;;4.40;3.20;;;;;;;16.76;100.00;99642.47;5021875;28;20032;-79
2023/09/21 07:38:58;;;;;;;4.45;3.08;;;;;;;16.77;100.00;99637.97;5032396;28;20033;-80
2023/09/21 07:41:24;;;;;;;4.05;3.03;;;;;;;16.77;100.00;99654.75;5032769;28;20048;-79
2023/09/21 07:43:49;;;;;;;5.18;3.10;;;;;;;16.78;100.00;99651.06;5030429;28;20087;-80
2023/09/21 07:46:15;;;;;;;5.13;3.42;;;;;;;16.76;100.00;99650.44;5045657;28;20456;-79
2023/09/21 07:48:44;;;;;;;5.63;3.55;;;;;;;16.75;100.00;99653.28;5031569;28;20177;-78
2023/09/21 07:51:12;;;;;;;5.05;3.20;;;;;;;16.75;100.00;99664.72;5020718;28;20036;-78
2023/09/21 07:53:40;;;;;;;5.57;3.30;;;;;;;16.70;100.00;99661.78;5030700;28;20029;-77
2023/09/21 07:56:06;;;;;;;6.28;3.65;;;;;;;16.68;100.00;99660.31;5039769;28;20431;-77
2023/09/21 07:58:31;;;;;;;4.15;3.28;;;;;;;16.68;100.00;99658.50;5029341;28;20029;-78
2023/09/21 08:00:57;;;;;;;4.47;3.42;;;;;;;16.72;100.00;99681.03;5030356;28;20033;-78
2023/09/21 08:03:26;;;;;;;5.65;3.00;;;;;;;16.72;100.00;99678.38;5030123;28;20080;-80
2023/09/21 08:05:54;;;;;;;6.72;3.33;;;;;;;16.74;100.00;99686.16;5030487;28;20057;-80
2023/09/21 08:08:20;;;;;;;4.90;3.47;;;;;;;16.72;100.00;99683.69;5028047;28;20055;-80
2023/09/21 08:10:45;;;;;;;5.10;3.58;;;;;;;16.71;100.00;99686.53;5031649;28;20025;-79
2023/09/21 08:13:11;;;;;;;4.35;3.35;;;;;;;16.69;100.00;99692.00;5043450;28;20056;-80
2023/09/21 08:15:36;;;;;;;5.97;3.67;;;;;;;16.68;100.00;99693.03;5031446;28;20018;-77
2023/09/21 08:18:02;;;;;;;4.95;2.85;;;;;;;16.65;100.00;99688.03;5031913;28;20025;-80
2023/09/21 08:20:28;;;;;;;4.95;3.25;;;;;;;16.61;100.00;99686.75;5030633;28;20064;-80
2023/09/21 08:22:53;;;;;;;5.38;3.08;;;;;;;16.60;100.00;99691.25;5042742;28;20115;-80
2023/09/21 08:25:19;;;;;;;5.07;2.83;;;;;;;16.60;100.00;99701.03;5043335;28;20028;-81
2023/09/21 08:27:47;;;;;;;3.72;2.80;;;;;;;16.53;100.00;99718.72;5016480;28;20033;-80
2023/09/21 08:30:16;;;;;;;4.18;2.58;;;;;;;16.53;100.00;99722.19;5034496;28;20561;-80
2023/09/21 08:32:46;;;;;;;3.20;2.60;;;;;;;16.45;100.00;99724.91;5030608;28;20104;-80
2023/09/21 08:35:12;;;;;;;3.42;2.90;;;;;;;16.46;100.00;99725.75;5029126;28;20505;-79
2023/09/21 08:37:37;;;;;;;3.00;2.30;;;;;;;16.48;100.00;99735.19;5029937;28;20124;-80
2023/09/21 08:40:06;;;;;;;3.67;2.70;;;;;;;16.43;100.00;99726.09;5027417;28;20049;-80
2023/09/21 08:42:32;;;;;;;3.65;2.53;;;;;;;16.38;100.00;99734.56;5028684;28;20440;-79
2023/09/21 08:45:00;;;;;;;4.53;2.50;;;;;;;16.35;100.00;99745.53;5030065;28;20042;-82
2023/09/21 08:47:28;;;;;;;2.72;2.33;;;;;;;16.36;100.00;99743.72;5030362;28;20018;-81
2023/09/21 08:49:54;;;;;;;3.15;2.35;;;;;;;16.35;100.00;99744.72;5028707;28;20033;-80
2023/09/21 08:52:21;;;;;;;4.07;2.50;;;;;;;16.24;100.00;99749.44;5027789;28;20040;-78
2023/09/21 08:54:47;;;;;;;4.55;2.47;;;;;;;16.12;100.00;99745.56;5022759;28;20025;-81
2023/09/21 08:57:13;;;;;;;3.10;2.10;;;;;;;16.18;100.00;99752.81;5028149;28;20409;-79
2023/09/21 08:59:44;;;;;;;1.42;1.25;;;;;;;16.04;100.00;99753.59;5028320;28;20033;-78
2023/09/21 09:02:13;;;;;;;1.60;1.10;;;;;;;16.02;100.00;99744.97;5035707;28;20025;-80
2023/09/21 09:04:42;;;;;;;1.65;1.20;;;;;;;15.96;100.00;99740.34;5026090;28;20437;-78
2023/09/21 09:07:10;;;;;;;1.90;1.02;;;;;;;15.98;100.00;99736.50;5030536;28;20029;-80
2023/09/21 09:09:39;;;;;;;7.40;1.45;;;;;;;15.92;100.00;99728.44;5028548;28;20112;-78
2023/09/21 09:12:20;;;;;;;10.77;1.50;;;;;;;15.99;100.00;99740.00;5027291;28;20075;-77
2023/09/21 09:14:45;;;;;;;6.18;1.80;;;;;;;15.99;100.00;99745.28;5023533;28;20026;-79
2023/09/21 09:17:14;;;;;;;6.25;2.50;;;;;;;15.95;100.00;99749.31;5021177;28;20044;-79
2023/09/21 09:19:40;;;;;;;2.67;1.70;;;;;;;15.98;100.00;99744.47;5029638;28;20088;-79
2023/09/21 09:22:06;;;;;;;3.05;1.55;;;;;;;15.91;100.00;99745.34;5028618;28;20760;-79
2023/09/21 09:24:31;;;;;;;2.30;1.30;;;;;;;15.92;100.00;99739.03;5027184;28;20021;-80
2023/09/21 09:27:00;;;;;;;4.20;1.50;;;;;;;15.94;100.00;99706.03;5024997;28;20022;-79
2023/09/21 09:29:26;;;;;;;2.05;1.23;;;;;;;15.82;100.00;99733.97;5026799;28;20033;-79
2023/09/21 09:31:51;;;;;;;2.22;1.55;;;;;;;15.81;100.00;99727.00;5017799;28;20028;-79
2023/09/21 09:34:18;;;;;;;2.05;1.38;;;;;;;15.86;100.00;99729.13;5028697;28;20022;-79
2023/09/21 09:36:50;;;;;;;2.97;1.33;;;;;;;15.83;100.00;99719.69;5028753;28;20079;-78
2023/09/21 09:39:15;;;;;;;3.25;1.58;;;;;;;15.90;100.00;99720.66;5029275;28;20032;-81
2023/09/21 09:41:50;;;;;;;2.22;1.60;;;;;;;15.94;100.00;99713.16;5031569;28;20157;-78
2023/09/21 09:44:21;;;;;;;2.33;1.60;;;;;;;16.00;100.00;99712.44;5031285;28;20099;-82
2023/09/21 09:46:48;;;;;;;3.10;1.63;;;;;;;16.05;100.00;99709.31;5034142;28;20393;-78
2023/09/21 09:49:17;;;;;;;4.57;1.73;;;;;;;16.07;100.00;99710.78;5030867;28;20448;-78
2023/09/21 09:51:46;;;;;;;3.03;1.80;;;;;;;16.12;100.00;99719.03;5030607;28;20431;-78
2023/09/21 09:54:16;;;;;;;2.65;1.90;;;;;;;16.17;100.00;99716.66;5025458;28;20028;-78
2023/09/21 09:56:42;;;;;;;3.38;2.05;;;;;;;16.20;100.00;99711.00;5033118;28;20021;-80
2023/09/21 09:59:11;;;;;;;2.97;2.20;;;;;;;16.20;100.00;99703.03;5030784;28;20025;-81
2023/09/21 10:01:44;;;;;;;4.85;2.28;;;;;;;16.22;100.00;99703.69;5032545;28;20034;-78
2023/09/21 10:04:10;;;;;;;4.60;2.25;;;;;;;16.34;100.00;99700.59;5022050;28;20509;-79
2023/09/21 10:06:36;;;;;;;2.90;2.20;;;;;;;16.30;100.00;99695.66;5031590;28;20075;-81
2023/09/21 10:09:10;;;;;;;3.70;2.60;;;;;;;16.36;100.00;99693.28;5031270;28;20135;-81
2023/09/21 10:11:42;;;;;;;7.45;3.15;;;;;;;16.36;100.00;99694.09;5031150;28;20029;-77
2023/09/21 10:14:11;;;;;;;3.28;2.80;;;;;;;16.46;100.00;99693.88;5031304;28;20477;-80
2023/09/21 10:16:39;;;;;;;4.97;3.25;;;;;;;16.55;100.00;99692.78;5031920;28;20056;-77
2023/09/21 10:19:17;;;;;;;6.35;3.20;;;;;;;16.68;100.00;99684.22;5032840;28;20484;-77
2023/09/21 10:21:43;;;;;;;4.32;3.30;;;;;;;16.76;100.00;99677.00;5043664;28;20079;-78
2023/09/21 10:24:11;;;;;;;4.22;3.30;;;;;;;16.81;100.00;99676.44;5031258;28;20033;-82
2023/09/21 10:26:38;;;;;;;6.68;3.30;;;;;;;16.93;100.00;99675.00;5031026;28;20024;-81
2023/09/21 10:29:07;;;;;;;5.07;3.25;;;;;;;16.99;100.00;99671.63;5031330;28;20079;-77
2023/09/21 10:31:44;;;;;;;3.53;3.22;;;;;;;17.11;100.00;99677.28;5046068;28;20444;-81
2023/09/21 10:34:16;;;;;;;4.38;3.13;;;;;;;17.16;100.00;99677.56;5041050;28;20029;-77
2023/09/21 10:36:50;;;;;;;3.88;2.80;;;;;;;17.21;100.00;99672.50;5030843;28;20022;-77
2023/09/21 10:39:26;;;;;;;3.50;2.60;;;;;;;17.25;100.00;99673.81;5029003;28;20033;-77
2023/09/21 10:41:53;;;;;;;4.55;3.00;;;;;;;17.31;100.00;99662.44;5029295;28;20033;-81
2023/09/21 10:44:53;;;;;;;3.70;2.45;;;;;;;17.35;100.00;99666.34;5030734;28;20453;-77
2023/09/21 10:47:28;;;;;;;4.15;2.28;;;;;;;17.43;100.00;99660.09;5030841;28;20040;-77
2023/09/21 10:49:55;;;;;;;5.05;2.47;;;;;;;17.47;100.00;99659.53;5029868;28;20116;-77
2023/09/21 10:52:21;;;;;;;4.60;2.22;;;;;;;17.55;100.00;99658.59;5027813;28;20030;-81
2023/09/21 10:54:48;;;;;;;5.18;2.10;;;;;;;17.53;100.00;99650.81;5028874;28;20028;-78
2023/09/21 10:57:13;;;;;;;3.75;2.40;;;;;;;17.58;100.00;99644.09;5033085;28;20080;-78
2023/09/21 10:59:42;;;;;;;3.55;1.85;;;;;;;17.60;100.00;99645.56;5029897;28;20389;-77
2023/09/21 11:02:09;;;;;;;3.05;2.03;;;;;;;17.62;100.00;99634.75;5029212;28;20034;-82
2023/09/21 11:04:35;;;;;;;3.88;2.13;;;;;;;17.66;100.00;99628.03;5026610;28;20067;-82
2023/09/21 11:07:00;;;;;;;4.75;2.13;;;;;;;17.71;100.00;99625.66;5028743;28;20087;-81
2023/09/21 11:09:26;;;;;;;4.13;1.95;;;;;;;17.74;100.00;99625.28;5026334;28;20071;-82
2023/09/21 11:11:51;;;;;;;2.58;1.77;;;;;;;17.77;100.00;99622.25;5028864;28;20029;-77
2023/09/21 11:14:16;;;;;;;5.03;2.10;;;;;;;17.81;100.00;99613.69;5030761;28;20036;-79
2023/09/21 11:16:45;;;;;;;2.35;1.83;;;;;;;17.79;100.00;99617.56;5029878;28;20017;-78
2023/09/21 11:19:14;;;;;;;3.05;2.00;;;;;;;17.81;100.00;99623.50;5023266;28;20025;-79
2023/09/21 11:21:40;;;;;;;2.78;1.90;;;;;;;17.81;100.00;99615.53;5030276;28;20071;-80
2023/09/21 11:24:06;;;;;;;6.15;2.00;;;;;;;17.83;100.00;99608.19;5028485;28;20056;-79
2023/09/21 11:26:33;;;;;;;4.07;1.80;;;;;;;17.83;100.00;99614.31;5027506;28;20026;-78
2023/09/21 11:28:58;;;;;;;2.45;1.95;;;;;;;17.77;100.00;99656.84;5032654;28;20033;-81
2023/09/21 11:31:28;;;;;;;3.45;2.35;;;;;;;17.64;100.00;99632.72;5021992;28;20370;-81